Jessica S. Settoon — WDD9545 — position and weather

sailwx.info

Track history (hours):
 
Tides and Currents Weather Stations Pressure Air Temp Water Temp Dewpoint Dewpoint Depression Visibility Wind Speed Wind Dir Waves Ship Positions

Jessica S. Settoon

Owner: Settoon Towing LLC, Houma, LA. More information available from US FCC via Universal Licensing System and Coast Guard Vessel Documentation Center.

Last reported at 2016-Jul-23 03:06 UTC. Time now 2016-Jul-27 01:16 UTC.
Position N 29°34' W 090°57'.

Length 17 m; draft 3 m.

Type: Tug. MMSI: 367312940.

Date/timePositionNaut miles runAvg speedWind from/ knotsBaromVisibWave heightAir tempDewpointWater temp
2016-Jul-23 03:06N 29°34' W 090°57'3 6.1
2016-Jul-23 02:33N 29°33' W 090°54'6 6.0
2016-Jul-23 01:33N 29°32' W 090°47'5 4.9
2016-Jul-23 00:33N 29°36' W 090°43'4 4.4
2016-Jul-22 23:33N 29°35' W 090°38'6 5.8
2016-Jul-22 22:33N 29°34' W 090°31'17 5.4
2016-Jul-22 19:21N 29°40' W 090°12'32 1.5
2016-Jul-21 21:33N 29°23' W 090°44'7 0.3
2016-Jul-20 21:21N 29°24' W 090°52'8 4.3
2016-Jul-20 19:33N 29°26' W 090°43'7 6.8
2016-Jul-20 18:33N 29°33' W 090°42'2 2.4
2016-Jul-20 17:33N 29°33' W 090°45'  
2016-Jul-16 22:32N 29°46' W 091°46'6 6.1
2016-Jul-16 21:28N 29°51' W 091°52'6 6.2
2016-Jul-16 20:33N 29°50' W 091°58'1 1.3
2016-Jul-16 19:33N 29°50' W 091°59'0 0.0
2016-Jul-16 18:33N 29°50' W 091°59'0 0.0
2016-Jul-16 17:33N 29°50' W 091°59'0 0.0
2016-Jul-16 16:33N 29°50' W 091°59'0 0.0
2016-Jul-16 15:34N 29°50' W 091°59'0 0.0
2016-Jul-16 14:33N 29°50' W 091°59'0 0.0
2016-Jul-16 13:33N 29°50' W 091°59'0 0.0
2016-Jul-16 12:33N 29°50' W 091°59'0 0.0
2016-Jul-16 11:33N 29°50' W 091°59'0 0.0
2016-Jul-16 10:33N 29°50' W 091°59'0 0.0
2016-Jul-16 09:33N 29°50' W 091°59'0 0.0
2016-Jul-16 08:33N 29°50' W 091°59'0 0.0
2016-Jul-16 07:33N 29°50' W 091°59'0 0.0
2016-Jul-16 06:33N 29°50' W 091°59'0 0.0
2016-Jul-16 04:33N 29°50' W 091°59'0 0.0
2016-Jul-16 03:33N 29°50' W 091°59'0 0.0
2016-Jul-16 02:33N 29°50' W 091°59'0 0.0
2016-Jul-16 01:33N 29°50' W 091°59'0 0.0
2016-Jul-16 00:33N 29°50' W 091°59'0 0.0
2016-Jul-15 23:33N 29°50' W 091°59'0 0.0
2016-Jul-15 22:33N 29°50' W 091°59'  
Track history (hours):
 
Tides and Currents Weather Stations Pressure Air Temp Water Temp Dewpoint Dewpoint Depression Visibility Wind Speed Wind Dir Waves Ship Positions

Jessica S. Settoon

Owner: Settoon Towing LLC, Houma, LA. More information available from US FCC via Universal Licensing System and Coast Guard Vessel Documentation Center.

Last reported at 2016-Jul-23 03:06 UTC. Time now 2016-Jul-27 01:16 UTC.
Position N 29°34' W 090°57'.

Length 17 m; draft 3 m.

Type: Tug. MMSI: 367312940.

Date/timePositionNaut miles runAvg speedWind from/ knotsBaromVisibWave heightAir tempDewpointWater temp
2016-Jul-23 03:06N 29°34' W 090°57'3 6.1
2016-Jul-23 02:33N 29°33' W 090°54'6 6.0
2016-Jul-23 01:33N 29°32' W 090°47'5 4.9
2016-Jul-23 00:33N 29°36' W 090°43'4 4.4
2016-Jul-22 23:33N 29°35' W 090°38'6 5.8
2016-Jul-22 22:33N 29°34' W 090°31'17 5.4
2016-Jul-22 19:21N 29°40' W 090°12'32 1.5
2016-Jul-21 21:33N 29°23' W 090°44'7 0.3
2016-Jul-20 21:21N 29°24' W 090°52'8 4.3
2016-Jul-20 19:33N 29°26' W 090°43'7 6.8
2016-Jul-20 18:33N 29°33' W 090°42'2 2.4
2016-Jul-20 17:33N 29°33' W 090°45'  
2016-Jul-16 22:32N 29°46' W 091°46'6 6.1
2016-Jul-16 21:28N 29°51' W 091°52'6 6.2
2016-Jul-16 20:33N 29°50' W 091°58'1 1.3
2016-Jul-16 19:33N 29°50' W 091°59'0 0.0
2016-Jul-16 18:33N 29°50' W 091°59'0 0.0
2016-Jul-16 17:33N 29°50' W 091°59'0 0.0
2016-Jul-16 16:33N 29°50' W 091°59'0 0.0
2016-Jul-16 15:34N 29°50' W 091°59'0 0.0
2016-Jul-16 14:33N 29°50' W 091°59'0 0.0
2016-Jul-16 13:33N 29°50' W 091°59'0 0.0
2016-Jul-16 12:33N 29°50' W 091°59'0 0.0
2016-Jul-16 11:33N 29°50' W 091°59'0 0.0
2016-Jul-16 10:33N 29°50' W 091°59'0 0.0
2016-Jul-16 09:33N 29°50' W 091°59'0 0.0
2016-Jul-16 08:33N 29°50' W 091°59'0 0.0
2016-Jul-16 07:33N 29°50' W 091°59'0 0.0
2016-Jul-16 06:33N 29°50' W 091°59'0 0.0
2016-Jul-16 04:33N 29°50' W 091°59'0 0.0
2016-Jul-16 03:33N 29°50' W 091°59'0 0.0
2016-Jul-16 02:33N 29°50' W 091°59'0 0.0
2016-Jul-16 01:33N 29°50' W 091°59'0 0.0
2016-Jul-16 00:33N 29°50' W 091°59'0 0.0
2016-Jul-15 23:33N 29°50' W 091°59'0 0.0
2016-Jul-15 22:33N 29°50' W 091°59'  

Dump ship's entire track history